Time;durP1;ratioP1;P1;durP2;ratioP2;P2;SDS_P1;SDS_P2;PMS_P1;PMS_P2;Temp;Humidity;BMP_temperature;BMP_pressure;BME280_temperature;BME280_humidity;BME280_pressure;Samples;Min_cycle;Max_cycle;Signal;HPM_P1;HPM_P2
2021/09/09 00:00:15;;;;;;;18.40;7.00;;;;;;;12.22;69.17;100562.74;111740;1203;22465;-59
2021/09/09 00:03:04;;;;;;;21.30;8.30;;;;;;;12.14;69.39;100563.69;111537;1204;22483;-56
2021/09/09 00:05:32;;;;;;;18.70;7.40;;;;;;;12.10;69.43;100564.31;111826;1203;24759;-58
2021/09/09 00:08:01;;;;;;;23.20;7.80;;;;;;;12.07;69.45;100561.52;112092;1203;24108;-57
2021/09/09 00:10:29;;;;;;;20.50;7.10;;;;;;;12.03;69.32;100565.17;111729;1203;25214;-58
2021/09/09 00:13:00;;;;;;;27.50;7.70;;;;;;;11.98;69.65;100569.91;111601;1203;24106;-57
2021/09/09 00:15:29;;;;;;;21.20;7.80;;;;;;;11.94;69.87;100568.20;111775;1203;24324;-58
2021/09/09 00:17:57;;;;;;;19.50;7.40;;;;;;;11.92;69.92;100559.67;111718;1203;22488;-55
2021/09/09 00:20:27;;;;;;;19.20;6.80;;;;;;;11.89;70.05;100560.02;111978;1204;22546;-58
2021/09/09 00:22:55;;;;;;;19.80;8.00;;;;;;;11.84;70.01;100557.95;111603;1203;22467;-56
2021/09/09 00:25:23;;;;;;;26.20;7.80;;;;;;;11.78;70.26;100559.70;111622;1203;25253;-55
2021/09/09 00:27:52;;;;;;;19.70;6.90;;;;;;;11.74;70.38;100560.02;111786;1203;22450;-57
2021/09/09 00:30:20;;;;;;;19.80;7.20;;;;;;;11.70;70.32;100559.96;111552;1203;22449;-57
2021/09/09 00:32:48;;;;;;;19.90;6.60;;;;;;;11.68;70.35;100564.39;111585;1203;24115;-58
2021/09/09 00:35:16;;;;;;;22.30;7.90;;;;;;;11.63;70.29;100562.89;111592;1203;25153;-59
2021/09/09 00:37:45;;;;;;;17.20;6.80;;;;;;;11.60;70.37;100560.43;111572;1203;22687;-57
2021/09/09 00:40:14;;;;;;;17.90;7.00;;;;;;;11.57;70.40;100556.21;111735;1203;24334;-59
2021/09/09 00:42:43;;;;;;;18.70;6.70;;;;;;;11.55;70.45;100559.63;111783;1203;24429;-58
2021/09/09 00:45:12;;;;;;;17.40;7.50;;;;;;;11.53;70.47;100556.38;111709;1203;24708;-59
2021/09/09 00:47:41;;;;;;;16.60;6.80;;;;;;;11.51;70.44;100559.85;111734;1203;22435;-58
2021/09/09 00:50:11;;;;;;;14.90;6.20;;;;;;;11.47;70.54;100560.79;111594;1203;22456;-58
2021/09/09 00:52:47;;;;;;;17.20;6.70;;;;;;;11.42;70.75;100560.13;111730;1204;23877;-57
2021/09/09 00:55:16;;;;;;;17.70;7.20;;;;;;;11.38;70.63;100556.14;111707;1203;22449;-59
2021/09/09 00:57:46;;;;;;;16.90;6.70;;;;;;;11.35;70.63;100555.30;111728;1203;22460;-57
2021/09/09 01:00:16;;;;;;;17.10;6.90;;;;;;;11.30;70.74;100554.10;111664;1203;25100;-58
2021/09/09 01:02:43;;;;;;;;;;;;;;;11.25;70.72;100556.02;111832;1203;25042;-57
2021/09/09 01:05:12;;;;;;;16.40;6.90;;;;;;;11.19;70.90;100551.97;111611;1203;22417;-55
2021/09/09 01:07:41;;;;;;;16.80;7.20;;;;;;;11.14;71.00;100553.17;111585;1200;22456;-58
2021/09/09 01:10:11;;;;;;;17.50;6.00;;;;;;;11.08;70.99;100552.04;111690;1204;24078;-58
2021/09/09 01:12:40;;;;;;;18.40;7.10;;;;;;;11.04;71.06;100555.55;111641;1203;22471;-57
2021/09/09 01:15:11;;;;;;;17.10;7.00;;;;;;;10.99;71.33;100558.34;111623;1203;22445;-56
2021/09/09 01:17:41;;;;;;;17.80;7.20;;;;;;;10.95;71.01;100557.39;111619;1203;23657;-58
2021/09/09 01:20:11;;;;;;;17.00;6.90;;;;;;;10.92;71.09;100561.02;111599;1204;22455;-59
2021/09/09 01:22:40;;;;;;;16.30;6.60;;;;;;;10.87;71.28;100562.59;111689;1203;24267;-58
2021/09/09 01:25:10;;;;;;;18.90;7.10;;;;;;;10.85;71.23;100562.23;111591;1204;22451;-57
2021/09/09 01:27:39;;;;;;;15.60;6.30;;;;;;;10.80;71.23;100565.52;111670;1203;22439;-56
2021/09/09 01:30:09;;;;;;;16.10;6.50;;;;;;;10.74;71.40;100559.95;111583;1204;25269;-57
2021/09/09 01:32:38;;;;;;;20.60;7.50;;;;;;;10.71;71.35;100559.66;111597;1203;25186;-58
2021/09/09 01:35:09;;;;;;;18.80;7.30;;;;;;;10.66;71.37;100558.92;111787;1203;24197;-58
2021/09/09 01:37:37;;;;;;;17.50;7.00;;;;;;;10.62;71.35;100563.27;111743;1204;22465;-56
2021/09/09 01:40:07;;;;;;;16.90;6.70;;;;;;;10.57;71.49;100558.84;111728;1203;22453;-59
2021/09/09 01:42:36;;;;;;;19.40;8.30;;;;;;;10.55;71.36;100557.58;111651;1203;22490;-59
2021/09/09 01:45:08;;;;;;;17.10;7.10;;;;;;;10.53;71.45;100555.10;111709;1203;25469;-57
2021/09/09 01:47:37;;;;;;;21.00;7.10;;;;;;;10.50;71.49;100556.09;111598;1203;22436;-57
2021/09/09 01:50:07;;;;;;;14.90;6.30;;;;;;;10.46;71.58;100557.61;111636;1203;24914;-58
2021/09/09 01:52:35;;;;;;;19.40;7.20;;;;;;;10.44;71.63;100549.74;111709;1203;22461;-56
2021/09/09 01:55:06;;;;;;;20.50;7.20;;;;;;;10.43;71.65;100548.98;111728;1204;25498;-57
2021/09/09 01:57:34;;;;;;;19.50;7.60;;;;;;;10.40;71.64;100546.26;111716;1204;24121;-58
2021/09/09 02:00:04;;;;;;;18.90;7.10;;;;;;;10.38;71.76;100548.25;111975;1198;22484;-58
2021/09/09 02:02:32;;;;;;;18.60;8.00;;;;;;;10.38;71.90;100544.53;112451;1203;24144;-58
2021/09/09 02:05:01;;;;;;;19.10;7.50;;;;;;;10.37;72.04;100553.64;112122;1204;22453;-56
2021/09/09 02:07:32;;;;;;;21.40;7.40;;;;;;;10.36;72.13;100547.73;112160;1204;24159;-59
2021/09/09 02:10:02;;;;;;;18.80;8.00;;;;;;;10.35;72.35;100548.82;112200;1203;22436;-58
2021/09/09 02:12:30;;;;;;;;;;;;;;;10.35;72.32;100550.73;112471;1204;25134;-60
2021/09/09 02:14:57;;;;;;;15.40;6.60;;;;;;;10.33;72.32;100550.84;112126;1204;22453;-57
2021/09/09 02:17:26;;;;;;;18.90;7.90;;;;;;;10.31;72.46;100546.39;111976;1203;22453;-57
2021/09/09 02:19:54;;;;;;;19.70;7.60;;;;;;;10.28;72.62;100543.80;112490;1203;22531;-58
2021/09/09 02:22:23;;;;;;;17.20;7.00;;;;;;;10.26;72.62;100542.77;112554;1204;22438;-57
2021/09/09 02:24:51;;;;;;;21.50;7.50;;;;;;;10.24;72.51;100542.45;112684;1204;22448;-57
2021/09/09 02:27:19;;;;;;;15.60;7.40;;;;;;;10.22;72.49;100542.41;112389;1204;22446;-60
2021/09/09 02:29:49;;;;;;;20.10;7.50;;;;;;;10.19;72.57;100542.69;112456;1204;25502;-58
2021/09/09 02:32:22;;;;;;;17.90;7.80;;;;;;;10.18;72.71;100542.55;112416;1204;25467;-59
2021/09/09 02:34:50;;;;;;;18.80;7.80;;;;;;;10.16;72.60;100539.11;112560;1204;24904;-59
2021/09/09 02:37:19;;;;;;;19.00;8.70;;;;;;;10.13;72.71;100539.89;112395;1204;24136;-60
2021/09/09 02:39:49;;;;;;;23.50;10.00;;;;;;;10.10;72.84;100544.80;112381;1203;24142;-58
2021/09/09 02:42:18;;;;;;;21.80;8.80;;;;;;;10.06;72.80;100543.36;112464;1203;24164;-60
2021/09/09 02:44:46;;;;;;;20.80;9.20;;;;;;;10.04;72.72;100546.02;112488;1203;24077;-58
2021/09/09 02:47:14;;;;;;;18.20;7.40;;;;;;;10.02;72.68;100545.08;112443;1204;22425;-58
2021/09/09 02:49:44;;;;;;;19.70;8.70;;;;;;;9.98;72.77;100547.40;112700;1207;26357;-58
2021/09/09 02:52:12;;;;;;;20.60;8.20;;;;;;;9.95;72.78;100549.72;112504;1204;22817;-59
2021/09/09 02:54:45;;;;;;;16.60;7.40;;;;;;;9.90;73.03;100550.48;112444;1204;22562;-57
2021/09/09 02:57:13;;;;;;;20.20;7.90;;;;;;;9.86;73.01;100547.92;112496;1205;22458;-60
2021/09/09 02:59:41;;;;;;;20.90;7.50;;;;;;;9.84;72.90;100547.11;112527;1203;22462;-59
2021/09/09 03:02:10;;;;;;;17.00;6.80;;;;;;;9.79;72.91;100544.85;112430;1206;22483;-58
2021/09/09 03:04:38;;;;;;;19.10;7.50;;;;;;;9.75;72.91;100546.67;112384;1205;22752;-55
2021/09/09 03:07:07;;;;;;;15.70;6.30;;;;;;;9.73;72.99;100546.95;112447;1203;22473;-57
2021/09/09 03:09:35;;;;;;;24.50;7.90;;;;;;;9.70;73.04;100550.17;112513;1205;26296;-56
2021/09/09 03:12:04;;;;;;;18.60;7.10;;;;;;;9.67;73.11;100547.21;112445;1209;22560;-57
2021/09/09 03:14:32;;;;;;;15.90;7.20;;;;;;;9.64;72.97;100547.52;112526;1204;22443;-58
2021/09/09 03:17:00;;;;;;;19.00;7.10;;;;;;;9.60;72.97;100543.05;112469;1203;22499;-57
2021/09/09 03:19:28;;;;;;;18.40;7.80;;;;;;;9.57;73.00;100541.14;112447;1206;22472;-57
2021/09/09 03:21:56;;;;;;;19.60;7.90;;;;;;;9.54;73.04;100543.34;112384;1203;23722;-58
2021/09/09 03:24:24;;;;;;;17.00;7.30;;;;;;;9.50;73.09;100545.97;112484;1203;24095;-57
2021/09/09 03:26:54;;;;;;;21.80;7.60;;;;;;;9.48;73.21;100537.23;112517;1204;22560;-55
2021/09/09 03:29:22;;;;;;;18.30;7.50;;;;;;;9.45;73.18;100535.86;112383;1204;25483;-60
2021/09/09 03:31:51;;;;;;;16.80;6.90;;;;;;;9.43;73.24;100536.86;112449;1207;25304;-58
2021/09/09 03:34:19;;;;;;;16.90;7.10;;;;;;;9.41;73.22;100537.02;112594;1206;23920;-57
2021/09/09 03:36:47;;;;;;;20.50;7.80;;;;;;;9.40;73.33;100535.90;112583;1205;25062;-56
2021/09/09 03:39:15;;;;;;;17.30;6.90;;;;;;;9.38;73.36;100531.91;112566;1204;24069;-56
2021/09/09 03:41:44;;;;;;;21.50;7.80;;;;;;;9.35;73.35;100527.27;112503;1204;25240;-57
2021/09/09 03:44:13;;;;;;;17.50;7.40;;;;;;;9.33;73.46;100529.03;112623;1204;22645;-61
2021/09/09 03:46:43;;;;;;;19.10;6.80;;;;;;;9.32;73.62;100527.88;112595;1203;24208;-58
2021/09/09 03:49:11;;;;;;;17.40;7.20;;;;;;;9.32;73.61;100528.54;112556;1203;22473;-57
2021/09/09 03:51:39;;;;;;;16.50;6.80;;;;;;;9.30;73.53;100524.08;112487;1203;24142;-57
2021/09/09 03:54:07;;;;;;;20.20;7.70;;;;;;;9.30;73.66;100526.40;112531;1204;22435;-61
2021/09/09 03:56:36;;;;;;;19.40;7.10;;;;;;;9.29;73.84;100527.39;112467;1207;25194;-58
2021/09/09 03:59:04;;;;;;;17.70;7.20;;;;;;;9.29;73.82;100524.51;112517;1203;22448;-59
2021/09/09 04:01:34;;;;;;;17.70;7.90;;;;;;;9.30;74.10;100522.00;112429;1204;22450;-60
2021/09/09 04:04:02;;;;;;;17.20;7.70;;;;;;;9.30;74.05;100523.02;112505;1204;22456;-55
2021/09/09 04:06:32;;;;;;;20.00;8.10;;;;;;;9.30;74.23;100520.58;112709;1206;25209;-59
2021/09/09 04:09:00;;;;;;;17.00;7.30;;;;;;;9.30;74.42;100517.30;112658;1203;22375;-57
2021/09/09 04:11:28;;;;;;;20.50;7.50;;;;;;;9.31;74.42;100517.42;112441;1204;25088;-58
2021/09/09 04:13:56;;;;;;;21.90;7.90;;;;;;;9.31;74.46;100519.49;112380;1209;23747;-57
2021/09/09 04:16:24;;;;;;;18.00;7.90;;;;;;;9.29;74.56;100521.72;112484;1203;26442;-57
2021/09/09 04:18:52;;;;;;;16.30;6.70;;;;;;;9.26;74.54;100522.71;112487;1205;22445;-57
2021/09/09 04:21:20;;;;;;;16.60;6.40;;;;;;;9.23;74.62;100526.67;112521;1203;24102;-58
2021/09/09 04:23:48;;;;;;;20.80;7.60;;;;;;;9.22;74.70;100523.80;112656;1202;25236;-58
2021/09/09 04:26:17;;;;;;;20.20;7.50;;;;;;;9.20;74.54;100524.20;112600;1202;24147;-59
2021/09/09 04:28:45;;;;;;;23.70;8.70;;;;;;;9.18;74.58;100524.68;112476;1205;22472;-58
2021/09/09 04:31:13;;;;;;;19.50;7.00;;;;;;;9.16;74.65;100525.34;112491;1206;25227;-59
2021/09/09 04:33:42;;;;;;;22.10;8.30;;;;;;;9.14;74.67;100522.05;112508;1209;22434;-58
2021/09/09 04:36:10;;;;;;;17.50;6.80;;;;;;;9.13;74.70;100524.73;112602;1206;24596;-59
2021/09/09 04:38:38;;;;;;;18.60;7.30;;;;;;;9.11;74.75;100528.23;112570;1205;22439;-58
2021/09/09 04:41:06;;;;;;;19.10;7.50;;;;;;;9.10;74.79;100527.25;112478;1206;22424;-60
2021/09/09 04:43:34;;;;;;;21.00;8.00;;;;;;;9.10;74.87;100526.84;112530;1203;22449;-60
2021/09/09 04:46:04;;;;;;;22.80;8.50;;;;;;;9.09;75.06;100524.64;112642;1203;22470;-59
2021/09/09 04:48:33;;;;;;;19.70;6.90;;;;;;;9.10;75.12;100523.35;112570;1204;22450;-58
2021/09/09 04:51:02;;;;;;;19.30;8.00;;;;;;;9.09;75.11;100522.66;112525;1206;24152;-62
2021/09/09 04:53:30;;;;;;;18.00;7.50;;;;;;;9.09;75.10;100518.70;112592;1204;24357;-61
2021/09/09 04:55:58;;;;;;;20.60;8.60;;;;;;;9.10;75.43;100521.27;112464;1206;25216;-63
2021/09/09 04:58:27;;;;;;;19.40;8.70;;;;;;;9.14;75.45;100518.64;112178;1202;25762;-59
2021/09/09 05:00:55;;;;;;;23.40;10.80;;;;;;;9.18;75.72;100518.52;112222;1205;25099;-59
2021/09/09 05:03:23;;;;;;;21.20;8.80;;;;;;;9.23;76.03;100517.20;112099;1205;25132;-59
2021/09/09 05:05:52;;;;;;;26.50;9.80;;;;;;;9.28;76.24;100512.84;112079;1209;26801;-60
2021/09/09 05:08:20;;;;;;;20.90;9.00;;;;;;;9.33;76.42;100513.18;112029;1205;23748;-59
2021/09/09 05:10:48;;;;;;;21.80;10.10;;;;;;;9.39;76.49;100505.14;111752;1205;25207;-59
2021/09/09 05:13:18;;;;;;;23.50;10.20;;;;;;;9.44;76.70;100503.70;111898;1204;24274;-57
2021/09/09 05:15:47;;;;;;;24.20;10.50;;;;;;;9.51;76.85;100499.98;112655;1206;22493;-57
2021/09/09 05:18:15;;;;;;;25.20;11.10;;;;;;;9.57;76.86;100504.78;112018;1205;24123;-59
2021/09/09 05:20:44;;;;;;;22.90;10.60;;;;;;;9.64;76.89;100501.23;112064;1203;25601;-59
2021/09/09 05:23:15;;;;;;;25.60;9.90;;;;;;;9.71;77.04;100499.48;112101;1205;25342;-58
2021/09/09 05:25:43;;;;;;;24.90;12.00;;;;;;;9.78;77.28;100500.02;112178;1204;25058;-59
2021/09/09 05:28:12;;;;;;;31.90;11.90;;;;;;;9.86;77.38;100498.23;112200;1205;25687;-64
2021/09/09 05:30:40;;;;;;;24.40;11.10;;;;;;;9.93;77.45;100494.91;112072;1205;25128;-58
2021/09/09 05:33:09;;;;;;;30.70;12.40;;;;;;;10.00;77.61;100489.06;112227;1202;22463;-59
2021/09/09 05:35:38;;;;;;;25.00;11.40;;;;;;;10.07;77.82;100484.42;112245;1205;22518;-60
2021/09/09 05:38:06;;;;;;;26.80;10.80;;;;;;;10.15;77.75;100484.05;112114;1204;24173;-60
2021/09/09 05:40:35;;;;;;;27.80;12.00;;;;;;;10.24;78.07;100486.53;112060;1205;24275;-60
2021/09/09 05:43:03;;;;;;;27.90;12.20;;;;;;;10.32;78.27;100484.83;112293;1206;22472;-58
2021/09/09 05:45:32;;;;;;;30.00;12.60;;;;;;;10.41;78.48;100489.45;112424;1205;22453;-59
2021/09/09 05:48:00;;;;;;;25.20;12.70;;;;;;;10.49;78.42;100487.61;112124;1204;22647;-60
2021/09/09 05:50:28;;;;;;;27.10;12.50;;;;;;;10.58;78.51;100484.77;112172;1202;22929;-59
2021/09/09 05:52:56;;;;;;;25.00;12.80;;;;;;;10.67;78.67;100481.80;112236;1204;22517;-60
2021/09/09 05:55:25;;;;;;;25.80;12.30;;;;;;;10.77;78.67;100478.52;112437;1206;22889;-59
2021/09/09 05:57:53;;;;;;;26.00;12.20;;;;;;;10.86;78.83;100475.48;112149;1202;22974;-60
2021/09/09 06:00:24;;;;;;;28.50;13.10;;;;;;;10.97;78.84;100471.98;112222;1205;22524;-60
2021/09/09 06:02:52;;;;;;;30.80;13.30;;;;;;;11.07;79.00;100475.30;112317;1203;25256;-59
2021/09/09 06:05:22;;;;;;;28.10;15.20;;;;;;;11.17;79.04;100471.81;112288;1205;22510;-60
2021/09/09 06:07:50;;;;;;;29.80;15.70;;;;;;;11.27;79.00;100470.94;112209;1205;22453;-59
2021/09/09 06:10:19;;;;;;;31.10;16.10;;;;;;;11.36;79.28;100468.20;112189;1204;22456;-59
2021/09/09 06:12:47;;;;;;;41.30;20.10;;;;;;;11.45;79.26;100464.37;112230;1204;22561;-59
2021/09/09 06:15:15;;;;;;;34.10;18.70;;;;;;;11.56;79.54;100457.66;112249;1205;22531;-59
2021/09/09 06:17:43;;;;;;;35.50;17.70;;;;;;;11.64;79.62;100459.91;112301;1204;25218;-59
2021/09/09 06:20:15;;;;;;;35.40;16.90;;;;;;;11.74;79.62;100461.23;112228;1205;22518;-59
2021/09/09 06:22:44;;;;;;;28.50;14.50;;;;;;;11.84;79.37;100453.92;115789;1205;22765;-60
2021/09/09 06:25:12;;;;;;;25.50;13.60;;;;;;;11.92;79.42;100449.84;115753;1203;22375;-62
2021/09/09 06:27:40;;;;;;;29.80;14.40;;;;;;;12.01;79.50;100453.76;114709;1206;22482;-59
2021/09/09 06:30:12;;;;;;;22.00;11.20;;;;;;;12.12;79.63;100449.88;111780;1206;24080;-58
2021/09/09 06:32:40;;;;;;;24.80;10.30;;;;;;;12.23;79.57;100456.55;111672;1206;24133;-58
2021/09/09 06:35:10;;;;;;;24.60;11.80;;;;;;;12.36;79.95;100452.47;111852;1204;22545;-58
2021/09/09 06:37:39;;;;;;;22.10;11.00;;;;;;;12.48;79.68;100451.73;111670;1204;22523;-58
2021/09/09 06:40:09;;;;;;;21.00;9.10;;;;;;;12.58;79.58;100452.85;111657;1204;22449;-58
2021/09/09 06:42:39;;;;;;;22.80;10.20;;;;;;;12.68;79.40;100443.83;111842;1203;24147;-59
2021/09/09 06:45:10;;;;;;;25.40;9.90;;;;;;;12.79;79.58;100449.52;111790;1204;22495;-61
2021/09/09 06:47:38;;;;;;;19.80;9.80;;;;;;;12.89;79.57;100449.01;111741;1204;22468;-59
2021/09/09 06:50:09;;;;;;;22.50;9.40;;;;;;;13.00;79.79;100453.42;111688;1205;24070;-59
2021/09/09 06:52:37;;;;;;;20.40;9.60;;;;;;;13.13;79.54;100456.05;111751;1207;24138;-56
2021/09/09 06:55:07;;;;;;;19.20;8.70;;;;;;;13.25;79.45;100452.33;111663;1205;22540;-58
2021/09/09 06:57:35;;;;;;;20.80;8.40;;;;;;;13.38;79.48;100447.27;111734;1207;22570;-57
2021/09/09 07:00:05;;;;;;;21.40;7.60;;;;;;;13.50;79.03;100446.13;111749;1204;23135;-58
2021/09/09 07:02:33;;;;;;;19.00;7.70;;;;;;;13.68;78.83;100447.27;111931;1205;25183;-59
2021/09/09 07:05:02;;;;;;;17.40;7.30;;;;;;;13.80;78.35;100442.99;111689;1205;22914;-59
2021/09/09 07:07:31;;;;;;;15.10;6.10;;;;;;;13.90;78.23;100440.88;112096;1205;22478;-59
2021/09/09 07:10:00;;;;;;;18.80;6.40;;;;;;;14.02;77.88;100441.61;111854;1204;24355;-59
2021/09/09 07:12:30;;;;;;;14.90;5.60;;;;;;;14.13;77.72;100441.42;111768;1203;22456;-59
2021/09/09 07:14:58;;;;;;;17.20;5.90;;;;;;;14.26;77.59;100444.36;111857;1203;25785;-59
2021/09/09 07:17:26;;;;;;;18.00;6.60;;;;;;;14.37;77.27;100444.30;111694;1202;24213;-58
2021/09/09 07:19:54;;;;;;;17.80;6.20;;;;;;;14.47;77.02;100444.30;111868;1203;25047;-60
2021/09/09 07:22:23;;;;;;;18.00;6.10;;;;;;;14.57;76.99;100443.06;111709;1204;22440;-59
2021/09/09 07:24:52;;;;;;;15.90;6.40;;;;;;;14.74;76.93;100442.27;111718;1204;22578;-58
2021/09/09 07:27:22;;;;;;;17.20;6.70;;;;;;;14.90;76.45;100438.89;111897;1203;25226;-57
2021/09/09 07:29:50;;;;;;;15.50;5.40;;;;;;;15.04;76.09;100441.39;112054;1202;22562;-59
2021/09/09 07:32:18;;;;;;;16.70;5.30;;;;;;;15.17;75.97;100438.94;111803;1203;25231;-59
2021/09/09 07:34:47;;;;;;;13.70;4.80;;;;;;;15.33;75.62;100436.02;111704;1203;22469;-58
2021/09/09 07:37:15;;;;;;;18.40;4.70;;;;;;;15.50;75.21;100434.10;111635;1206;22440;-59
2021/09/09 07:39:46;;;;;;;14.50;5.10;;;;;;;15.63;74.77;100433.51;111797;1203;25153;-58
2021/09/09 07:42:20;;;;;;;14.20;5.20;;;;;;;15.74;74.36;100428.97;111730;1203;22489;-57
2021/09/09 07:44:49;;;;;;;18.20;4.20;;;;;;;15.85;74.26;100433.28;111691;1203;22450;-59
2021/09/09 07:47:18;;;;;;;13.30;4.70;;;;;;;15.95;74.00;100428.67;111897;1203;25291;-58
2021/09/09 07:49:46;;;;;;;14.80;4.70;;;;;;;16.06;74.02;100430.11;112052;1203;23117;-59
2021/09/09 07:52:15;;;;;;;11.60;3.20;;;;;;;16.16;73.52;100431.13;111945;1205;24146;-59
2021/09/09 07:54:45;;;;;;;14.50;4.80;;;;;;;16.26;73.34;100436.04;111736;1203;25157;-58
2021/09/09 07:57:13;;;;;;;18.90;5.30;;;;;;;16.37;73.22;100435.36;111677;1203;25145;-59
2021/09/09 07:59:42;;;;;;;14.50;5.00;;;;;;;16.51;72.86;100435.96;111680;1205;27316;-58
2021/09/09 08:02:12;;;;;;;16.40;4.20;;;;;;;16.66;72.26;100436.96;111656;1203;24331;-59
2021/09/09 08:04:44;;;;;;;13.30;3.40;;;;;;;16.80;72.04;100441.53;111752;1204;25695;-58
2021/09/09 08:07:34;;;;;;;13.60;4.20;;;;;;;16.95;72.07;100438.67;111623;1203;22767;-59
2021/09/09 08:10:02;;;;;;;14.50;4.10;;;;;;;17.11;71.31;100441.33;111571;1205;24227;-59
2021/09/09 08:12:32;;;;;;;13.90;4.30;;;;;;;17.22;70.73;100440.97;111602;1203;24148;-58
2021/09/09 08:15:01;;;;;;;11.70;4.20;;;;;;;17.33;70.39;100436.14;111725;1205;22454;-59
2021/09/09 08:17:55;;;;;;;13.30;4.10;;;;;;;17.41;70.19;100435.64;111799;1205;25229;-59
2021/09/09 08:20:23;;;;;;;15.70;4.90;;;;;;;17.53;69.99;100438.46;111813;1204;24094;-59
2021/09/09 08:22:52;;;;;;;12.00;4.00;;;;;;;17.65;69.79;100439.56;111668;1204;22457;-59
2021/09/09 08:25:20;;;;;;;13.50;3.70;;;;;;;17.76;69.70;100437.96;111871;1202;24158;-60
2021/09/09 08:27:49;;;;;;;12.30;3.50;;;;;;;17.92;69.29;100438.15;112116;1209;22439;-61
2021/09/09 08:30:18;;;;;;;11.70;3.40;;;;;;;18.04;68.74;100436.45;112005;1203;25312;-61
2021/09/09 08:32:49;;;;;;;17.20;4.50;;;;;;;18.14;68.27;100436.36;111860;1203;25048;-60
2021/09/09 08:35:29;;;;;;;;;;;;;;;;;;;;;
2021/09/09 08:37:59;;;;;;;11.60;3.30;;;;;;;18.37;67.68;100429.94;111393;1207;22466;-59
2021/09/09 08:40:40;;;;;;;14.30;4.10;;;;;;;18.45;67.63;100429.02;112265;1203;22450;-60
2021/09/09 08:43:12;;;;;;;14.60;3.70;;;;;;;18.52;66.86;100423.92;111808;1203;22442;-59
2021/09/09 08:45:40;;;;;;;12.10;3.50;;;;;;;18.59;66.63;100422.81;111760;1203;22559;-59
2021/09/09 08:48:15;;;;;;;11.20;3.20;;;;;;;18.67;66.46;100424.98;111712;1206;24234;-59
2021/09/09 08:50:56;;;;;;;13.30;3.10;;;;;;;18.77;65.96;100420.39;111725;1203;22493;-58
2021/09/09 08:53:26;;;;;;;13.90;4.50;;;;;;;18.91;65.86;100421.00;111419;1207;24221;-59
2021/09/09 08:55:58;;;;;;;9.60;2.80;;;;;;;18.99;65.19;100422.55;111756;1204;25261;-59
2021/09/09 08:58:28;;;;;;;9.50;2.70;;;;;;;19.07;64.92;100423.27;111921;1203;24123;-57
2021/09/09 09:01:08;;;;;;;10.40;3.10;;;;;;;19.18;64.73;100420.55;111839;1203;22454;-58
2021/09/09 09:03:46;;;;;;;11.90;3.20;;;;;;;19.27;64.40;100418.10;111782;1203;22450;-58
2021/09/09 09:09:24;;;;;;;9.10;2.20;;;;;;;19.42;63.31;100412.70;111385;1206;22905;-57
2021/09/09 09:11:54;;;;;;;14.90;3.20;;;;;;;19.50;63.15;100405.68;111369;1206;23910;-59
2021/09/09 09:14:25;;;;;;;8.20;2.00;;;;;;;19.60;62.88;100405.11;111524;1206;25172;-58
2021/09/09 09:16:57;;;;;;;17.30;3.00;;;;;;;19.72;62.27;100405.83;111473;1206;22481;-59
2021/09/09 09:19:27;;;;;;;8.90;2.40;;;;;;;19.83;61.35;100407.85;111400;1206;25344;-58
2021/09/09 09:22:00;;;;;;;10.60;2.30;;;;;;;19.95;61.26;100400.65;111451;1206;25529;-58
2021/09/09 09:24:33;;;;;;;8.60;2.40;;;;;;;20.08;60.61;100400.62;111468;1206;22465;-57
2021/09/09 09:27:11;;;;;;;9.40;2.10;;;;;;;20.21;60.49;100400.98;111327;1206;22448;-58
2021/09/09 09:29:42;;;;;;;8.70;2.00;;;;;;;20.28;59.83;100401.61;111447;1206;25421;-55
2021/09/09 09:32:15;;;;;;;9.50;2.40;;;;;;;20.34;59.53;100395.25;111363;1206;22556;-55
2021/09/09 09:34:46;;;;;;;9.60;2.30;;;;;;;20.39;59.34;100397.84;111491;1206;22457;-58
2021/09/09 09:37:22;;;;;;;7.40;1.80;;;;;;;20.44;58.99;100395.84;111628;1206;22475;-59
2021/09/09 09:39:51;;;;;;;8.80;2.20;;;;;;;20.54;58.72;100395.02;111501;1206;25104;-59
2021/09/09 09:42:27;;;;;;;8.90;2.30;;;;;;;20.70;58.56;100392.23;111266;1206;24451;-58
2021/09/09 09:45:19;;;;;;;8.90;1.90;;;;;;;20.83;58.13;100386.52;111411;1208;25219;-58
2021/09/09 09:47:50;;;;;;;14.70;2.10;;;;;;;20.93;57.06;100383.92;111537;1205;22448;-57
2021/09/09 09:50:22;;;;;;;10.60;1.90;;;;;;;20.99;56.96;100388.13;111610;1205;25387;-57
2021/09/09 09:53:15;;;;;;;8.00;1.80;;;;;;;21.04;57.08;100388.52;111563;1205;25282;-57
2021/09/09 09:56:04;;;;;;;10.50;2.00;;;;;;;21.10;56.81;100392.41;111918;1203;22447;-58
2021/09/09 09:58:38;;;;;;;9.20;2.20;;;;;;;21.17;56.35;100389.27;111721;1203;25109;-58
2021/09/09 10:01:08;;;;;;;15.10;2.60;;;;;;;21.24;55.54;100388.23;111792;1203;22460;-59
2021/09/09 10:03:37;;;;;;;7.50;2.00;;;;;;;21.33;55.01;100383.72;111987;1203;22463;-60
2021/09/09 10:06:06;;;;;;;6.90;2.00;;;;;;;21.44;54.54;100381.16;111719;1203;25188;-58
2021/09/09 10:08:35;;;;;;;6.80;1.70;;;;;;;21.52;54.25;100383.98;111656;1203;24185;-58
2021/09/09 10:11:05;;;;;;;8.30;2.40;;;;;;;21.59;54.46;100381.64;111814;1203;22473;-62
2021/09/09 10:13:33;;;;;;;9.50;2.00;;;;;;;21.68;54.03;100378.76;111868;1203;25225;-58
2021/09/09 10:16:01;;;;;;;6.60;1.50;;;;;;;21.75;53.65;100378.00;111841;1203;22461;-58
2021/09/09 10:18:30;;;;;;;14.30;2.30;;;;;;;21.86;53.49;100373.99;111711;1203;22441;-58
2021/09/09 10:21:02;;;;;;;7.10;1.60;;;;;;;21.93;52.94;100368.90;111667;1203;25172;-58
2021/09/09 10:23:31;;;;;;;8.80;1.70;;;;;;;22.01;52.25;100361.46;111696;1203;25196;-57
2021/09/09 10:26:02;;;;;;;10.80;2.70;;;;;;;22.11;51.68;100359.70;111687;1203;25235;-58
2021/09/09 10:28:45;;;;;;;6.40;1.50;;;;;;;22.22;51.13;100356.77;111714;1203;25193;-58
2021/09/09 10:31:15;;;;;;;7.40;1.60;;;;;;;22.26;50.83;100349.15;111784;1203;22592;-58
2021/09/09 10:33:51;;;;;;;10.70;1.90;;;;;;;22.30;50.41;100350.41;111692;1203;22467;-58
2021/09/09 10:36:43;;;;;;;8.20;1.80;;;;;;;22.36;50.22;100348.32;111711;1203;24179;-58
2021/09/09 10:39:14;;;;;;;7.00;1.70;;;;;;;22.48;49.83;100343.20;111813;1203;24126;-58
2021/09/09 10:41:43;;;;;;;8.40;1.40;;;;;;;22.53;49.75;100329.38;111754;1202;22474;-58
2021/09/09 10:44:12;;;;;;;8.70;2.10;;;;;;;22.59;49.56;100331.38;111700;1204;24147;-58
2021/09/09 10:46:42;;;;;;;6.70;1.50;;;;;;;22.61;48.91;100330.33;111653;1203;22457;-59
2021/09/09 10:49:14;;;;;;;8.50;1.70;;;;;;;22.65;48.99;100325.87;111643;1203;25146;-59
2021/09/09 10:52:07;;;;;;;8.70;1.80;;;;;;;22.73;48.60;100327.91;111695;1203;22465;-60
2021/09/09 10:55:20;;;;;;;;;;;;;;;;;;;;;
2021/09/09 10:58:10;;;;;;;5.60;1.30;;;;;;;22.95;47.62;100321.02;111637;1203;22455;-58
2021/09/09 11:00:58;;;;;;;11.40;1.80;;;;;;;23.04;46.99;100318.48;111658;1203;25117;-58
2021/09/09 11:03:37;;;;;;;10.80;1.30;;;;;;;23.10;46.93;100311.36;111743;1203;22925;-59
2021/09/09 11:06:09;;;;;;;13.90;1.80;;;;;;;23.16;46.14;100311.98;111657;1203;26564;-59
2021/09/09 11:08:38;;;;;;;11.60;1.50;;;;;;;23.22;45.60;100311.13;111778;1203;25086;-59
2021/09/09 11:11:30;;;;;;;7.10;1.00;;;;;;;23.29;45.49;100308.98;111615;1203;22448;-58
2021/09/09 11:14:03;;;;;;;5.10;1.20;;;;;;;23.39;44.58;100303.98;111641;1203;22462;-59
2021/09/09 11:16:33;;;;;;;4.70;1.00;;;;;;;23.48;44.77;100304.33;111799;1203;22442;-58
2021/09/09 11:19:04;;;;;;;6.30;1.30;;;;;;;23.54;44.26;100305.48;111601;1203;22460;-59
2021/09/09 11:21:36;;;;;;;7.40;1.20;;;;;;;23.59;44.39;100306.67;111651;1203;22467;-59
2021/09/09 11:24:06;;;;;;;7.60;1.40;;;;;;;23.63;43.77;100300.96;111779;1203;25203;-57
2021/09/09 11:26:36;;;;;;;6.60;1.40;;;;;;;23.66;43.67;100299.41;111738;1203;22441;-58
2021/09/09 11:29:07;;;;;;;4.90;1.20;;;;;;;23.69;43.24;100300.94;111991;1203;22873;-58
2021/09/09 11:31:58;;;;;;;5.30;1.20;;;;;;;23.78;43.24;100291.41;111839;1205;25219;-58